Time;durP1;ratioP1;P1;durP2;ratioP2;P2;SDS_P1;SDS_P2;PMS_P1;PMS_P2;Temp;Humidity;BMP_temperature;BMP_pressure;BME280_temperature;BME280_humidity;BME280_pressure;Samples;Min_cycle;Max_cycle;Signal;HPM_P1;HPM_P2
2022/07/30 00:00:49;;;;;;;4.72;2.35;;;18.10;75.40;;;;;;4773900;29;20078;-74
2022/07/30 00:03:16;;;;;;;3.05;1.90;;;18.10;75.70;;;;;;4777889;29;20059;-77
2022/07/30 00:05:43;;;;;;;6.20;2.63;;;18.00;75.80;;;;;;4794061;29;20078;-77
2022/07/30 00:08:11;;;;;;;5.00;2.13;;;17.90;76.30;;;;;;4776688;29;20125;-77
2022/07/30 00:10:38;;;;;;;3.88;2.13;;;17.90;76.50;;;;;;4811412;29;20123;-76
2022/07/30 00:13:05;;;;;;;5.25;2.17;;;17.90;76.70;;;;;;4785178;29;20110;-74
2022/07/30 00:15:33;;;;;;;4.55;1.98;;;17.90;76.90;;;;;;4782314;29;20467;-74
2022/07/30 00:18:00;;;;;;;4.65;2.50;;;17.80;76.90;;;;;;4784497;29;20051;-74
2022/07/30 00:20:27;;;;;;;3.45;1.63;;;17.80;77.20;;;;;;4784410;29;20529;-74
2022/07/30 00:22:54;;;;;;;3.20;1.80;;;17.90;77.20;;;;;;4768872;30;20556;-74
2022/07/30 00:25:21;;;;;;;3.85;1.80;;;17.80;77.20;;;;;;4787781;29;20071;-74
2022/07/30 00:27:49;;;;;;;4.00;1.90;;;17.80;77.40;;;;;;4769216;30;20105;-75
2022/07/30 00:30:16;;;;;;;4.65;2.47;;;17.80;77.70;;;;;;4798727;29;20047;-74
2022/07/30 00:32:43;;;;;;;5.00;2.25;;;17.80;78.20;;;;;;4785662;29;20154;-74
2022/07/30 00:35:12;;;;;;;5.28;2.28;;;17.70;78.30;;;;;;4786245;29;20058;-74
2022/07/30 00:37:39;;;;;;;6.60;3.67;;;17.70;78.80;;;;;;4784880;29;20054;-77
2022/07/30 00:40:08;;;;;;;5.60;2.97;;;17.60;79.40;;;;;;4784729;29;20056;-74
2022/07/30 00:42:44;;;;;;;4.25;2.22;;;17.60;79.20;;;;;;4784914;29;20057;-74
2022/07/30 00:45:15;;;;;;;5.45;2.40;;;17.70;79.20;;;;;;4785670;29;20052;-74
2022/07/30 00:47:43;;;;;;;4.70;2.70;;;17.60;79.40;;;;;;4782529;29;20208;-74
2022/07/30 00:50:12;;;;;;;3.63;2.13;;;17.60;79.40;;;;;;4781680;29;20051;-74
2022/07/30 00:52:40;;;;;;;4.97;2.38;;;17.60;79.60;;;;;;4769202;30;20071;-74
2022/07/30 00:55:13;;;;;;;6.32;2.67;;;17.60;79.90;;;;;;4780272;29;20055;-74
2022/07/30 00:57:41;;;;;;;5.18;2.72;;;17.50;80.40;;;;;;4791666;29;20116;-75
2022/07/30 01:00:12;;;;;;;6.00;2.33;;;17.50;80.60;;;;;;4797822;29;20050;-74
2022/07/30 01:02:40;;;;;;;2.85;1.67;;;17.50;80.60;;;;;;4780435;29;20112;-74
2022/07/30 01:05:07;;;;;;;4.53;2.60;;;17.40;80.80;;;;;;4786724;29;20488;-74
2022/07/30 01:07:35;;;;;;;4.43;2.20;;;17.40;80.90;;;;;;4771097;30;20039;-74
2022/07/30 01:10:03;;;;;;;6.38;3.35;;;17.40;81.00;;;;;;4770578;30;20047;-74
2022/07/30 01:12:31;;;;;;;4.90;2.53;;;17.40;81.40;;;;;;4799182;29;20071;-81
2022/07/30 01:15:01;;;;;;;4.28;2.45;;;17.40;81.40;;;;;;4783069;29;20378;-81
2022/07/30 01:17:28;;;;;;;5.00;2.30;;;17.30;81.40;;;;;;4793801;29;20074;-80
2022/07/30 01:20:01;;;;;;;4.63;2.40;;;17.30;81.60;;;;;;4770694;30;20047;-81
2022/07/30 01:22:27;;;;;;;;;;;17.30;81.60;;;;;;4797736;29;20052;-82
2022/07/30 01:25:02;;;;;;;5.75;2.42;;;17.30;81.50;;;;;;4769417;30;20001;-81
2022/07/30 01:27:34;;;;;;;5.25;3.08;;;17.30;81.70;;;;;;4794494;29;20071;-80
2022/07/30 01:30:03;;;;;;;4.20;2.53;;;17.30;81.70;;;;;;4794208;29;20105;-80
2022/07/30 01:32:33;;;;;;;4.68;2.22;;;17.30;81.80;;;;;;4774320;30;20051;-80
2022/07/30 01:35:02;;;;;;;4.32;2.67;;;17.30;82.00;;;;;;4769374;30;20052;-81
2022/07/30 01:37:32;;;;;;;4.60;2.55;;;17.30;82.00;;;;;;4804292;29;20058;-81
2022/07/30 01:39:59;;;;;;;4.20;2.58;;;17.30;82.10;;;;;;4780388;30;20051;-81
2022/07/30 01:42:28;;;;;;;3.90;2.65;;;17.30;82.00;;;;;;4784776;29;20585;-81
2022/07/30 01:44:58;;;;;;;4.15;2.17;;;17.40;82.10;;;;;;4767636;30;20138;-81
2022/07/30 01:47:27;;;;;;;5.50;2.53;;;17.40;81.90;;;;;;4785270;29;20074;-81
2022/07/30 01:49:56;;;;;;;5.28;2.63;;;17.40;81.90;;;;;;4775718;30;20055;-80
2022/07/30 01:52:25;;;;;;;5.28;2.72;;;17.40;82.10;;;;;;4790318;29;20122;-81
2022/07/30 01:54:55;;;;;;;5.65;3.45;;;17.40;82.10;;;;;;4782518;29;20527;-81
2022/07/30 01:57:23;;;;;;;5.22;2.97;;;17.40;82.40;;;;;;4793886;29;20044;-80
2022/07/30 01:59:57;;;;;;;6.07;3.00;;;17.40;82.40;;;;;;4774332;30;20043;-81
2022/07/30 02:02:24;;;;;;;4.40;2.67;;;17.40;82.30;;;;;;4793899;29;20504;-81
2022/07/30 02:04:51;;;;;;;4.95;2.75;;;17.50;82.40;;;;;;4798674;29;20043;-81
2022/07/30 02:07:44;;;;;;;5.75;2.53;;;17.50;82.40;;;;;;4798911;29;20043;-81
2022/07/30 02:10:21;;;;;;;5.20;2.42;;;17.60;82.20;;;;;;4788254;29;20107;-81
2022/07/30 02:12:51;;;;;;;6.07;2.63;;;17.60;82.20;;;;;;4803056;29;20142;-74
2022/07/30 02:15:40;;;;;;;4.93;2.50;;;17.60;82.10;;;;;;4778842;30;20427;-74
2022/07/30 02:18:19;;;;;;;5.40;2.08;;;17.70;82.00;;;;;;4790278;29;20053;-74
2022/07/30 02:21:07;;;;;;;4.78;2.45;;;17.70;82.00;;;;;;4768075;30;20056;-75
2022/07/30 02:23:42;;;;;;;4.57;2.67;;;17.70;81.90;;;;;;4802881;29;20067;-75
2022/07/30 02:26:14;;;;;;;4.88;2.90;;;17.70;82.10;;;;;;4787665;29;20055;-74
2022/07/30 02:28:44;;;;;;;7.13;3.55;;;17.70;82.10;;;;;;4772336;29;20035;-74
2022/07/30 02:31:14;;;;;;;6.25;2.70;;;17.70;82.20;;;;;;4772470;29;20058;-75
2022/07/30 02:33:44;;;;;;;5.30;2.90;;;17.70;82.30;;;;;;4774280;29;20517;-75
2022/07/30 02:36:17;;;;;;;5.70;3.40;;;17.70;82.60;;;;;;4791179;29;20108;-74
2022/07/30 02:38:46;;;;;;;7.22;2.88;;;17.60;82.60;;;;;;4790474;29;20039;-74
2022/07/30 02:41:14;;;;;;;6.55;3.33;;;17.60;82.90;;;;;;4808375;29;20065;-74
2022/07/30 02:43:41;;;;;;;6.47;3.30;;;17.50;83.00;;;;;;4790102;29;20150;-75
2022/07/30 02:46:11;;;;;;;6.00;3.40;;;17.50;83.20;;;;;;4767823;29;20047;-74
2022/07/30 02:49:09;;;;;;;4.95;3.05;;;17.50;83.40;;;;;;4770513;29;20083;-74
2022/07/30 02:51:39;;;;;;;4.05;2.20;;;17.50;83.40;;;;;;4787136;29;20047;-74
2022/07/30 02:54:08;;;;;;;4.15;2.67;;;17.50;83.30;;;;;;4769198;30;20074;-75
2022/07/30 02:56:39;;;;;;;5.43;2.58;;;17.60;83.20;;;;;;4772180;30;20065;-75
2022/07/30 02:59:09;;;;;;;3.50;2.00;;;17.60;83.10;;;;;;4771563;29;20389;-75
2022/07/30 03:01:36;;;;;;;4.47;2.25;;;17.70;83.00;;;;;;4801302;29;20452;-75
2022/07/30 03:04:04;;;;;;;2.92;1.42;;;17.70;82.90;;;;;;4771387;30;20054;-75
2022/07/30 03:06:32;;;;;;;4.05;2.22;;;17.70;82.90;;;;;;4779646;30;20063;-75
2022/07/30 03:09:02;;;;;;;5.53;1.92;;;17.80;83.00;;;;;;4807549;29;20461;-75
2022/07/30 03:11:30;;;;;;;4.70;2.50;;;17.70;83.00;;;;;;4781333;30;20496;-74
2022/07/30 03:14:01;;;;;;;5.60;3.10;;;17.70;83.20;;;;;;4804379;29;20189;-75
2022/07/30 03:16:31;;;;;;;4.72;2.97;;;17.60;83.50;;;;;;4774562;30;20101;-74
2022/07/30 03:19:01;;;;;;;4.30;2.88;;;17.60;83.60;;;;;;4800994;29;20515;-75
2022/07/30 03:21:33;;;;;;;4.90;3.10;;;17.50;83.60;;;;;;4786045;29;20146;-75
2022/07/30 03:24:02;;;;;;;4.38;2.83;;;17.50;83.60;;;;;;4794730;29;20115;-75
2022/07/30 03:26:31;;;;;;;4.68;2.97;;;17.50;83.70;;;;;;4763559;30;20121;-75
2022/07/30 03:28:59;;;;;;;6.55;3.08;;;17.50;83.80;;;;;;4805188;29;20792;-75
2022/07/30 03:31:26;;;;;;;4.90;2.42;;;17.50;83.80;;;;;;4770356;30;20043;-75
2022/07/30 03:34:02;;;;;;;4.82;2.92;;;17.50;83.70;;;;;;4772897;29;20569;-75
2022/07/30 03:36:33;;;;;;;4.15;2.50;;;17.50;83.70;;;;;;4800808;29;20047;-75
2022/07/30 03:39:04;;;;;;;4.57;2.78;;;17.50;83.80;;;;;;4792937;29;20083;-75
2022/07/30 03:41:32;;;;;;;6.57;4.13;;;17.50;83.80;;;;;;4799674;29;20074;-75
2022/07/30 03:44:00;;;;;;;5.97;3.90;;;17.50;84.30;;;;;;4795299;29;20050;-75
2022/07/30 03:46:29;;;;;;;6.90;4.03;;;17.40;85.10;;;;;;4770810;29;20083;-74
2022/07/30 03:48:58;;;;;;;6.32;4.57;;;17.30;85.10;;;;;;4799159;29;20043;-75
2022/07/30 03:51:26;;;;;;;9.32;4.63;;;17.30;85.30;;;;;;4810184;29;20415;-75
2022/07/30 03:54:00;;;;;;;5.57;3.63;;;17.20;85.20;;;;;;4790704;29;20047;-75
2022/07/30 03:56:47;;;;;;;6.40;2.92;;;17.20;85.20;;;;;;4758470;29;20078;-75
2022/07/30 03:59:28;;;;;;;10.90;5.10;;;17.30;85.10;;;;;;4794718;29;20097;-75
2022/07/30 04:02:01;;;;;;;7.70;4.78;;;17.20;85.80;;;;;;4772594;30;20089;-75
2022/07/30 04:05:06;;;;;;;6.28;4.70;;;17.20;85.70;;;;;;4762042;29;20051;-75
2022/07/30 04:07:33;;;;;;;5.38;3.15;;;17.20;85.80;;;;;;4808766;29;20587;-74
2022/07/30 04:10:08;;;;;;;6.05;3.55;;;17.20;85.60;;;;;;4786511;29;20055;-74
2022/07/30 04:12:59;;;;;;;5.38;2.83;;;17.10;85.50;;;;;;4780831;29;20039;-75
2022/07/30 04:15:28;;;;;;;3.70;2.53;;;17.20;85.50;;;;;;4786389;29;20059;-75
2022/07/30 04:18:17;;;;;;;5.15;2.90;;;17.20;85.40;;;;;;4782934;29;20043;-75
2022/07/30 04:20:47;;;;;;;4.22;2.70;;;17.20;85.40;;;;;;4756113;29;20804;-75
2022/07/30 04:23:15;;;;;;;7.70;2.80;;;17.20;86.00;;;;;;4767376;30;20154;-75
2022/07/30 04:25:43;;;;;;;5.45;2.35;;;17.10;85.40;;;;;;4809845;29;20507;-75
2022/07/30 04:28:12;;;;;;;6.55;2.70;;;17.10;85.70;;;;;;4767573;30;20055;-75
2022/07/30 04:30:40;;;;;;;5.38;2.95;;;17.10;85.70;;;;;;4794934;29;20549;-75
2022/07/30 04:33:07;;;;;;;5.95;2.47;;;17.00;85.70;;;;;;4768701;30;20047;-75
2022/07/30 04:36:13;;;;;;;4.75;2.00;;;17.00;85.80;;;;;;4768908;29;20048;-75
2022/07/30 04:38:42;;;;;;;5.60;2.45;;;17.00;85.80;;;;;;4804398;29;20392;-75
2022/07/30 04:41:10;;;;;;;4.25;2.72;;;17.00;85.80;;;;;;4788714;29;20816;-75
2022/07/30 04:44:02;;;;;;;;;;;17.00;85.90;;;;;;4790136;29;20568;-75
2022/07/30 04:46:32;;;;;;;5.80;2.70;;;16.90;86.00;;;;;;4768839;30;20325;-75
2022/07/30 04:48:59;;;;;;;3.97;2.60;;;16.90;86.00;;;;;;4771541;30;20059;-75
2022/07/30 04:51:35;;;;;;;3.60;2.17;;;16.90;86.00;;;;;;4769790;30;20059;-75
2022/07/30 04:54:07;;;;;;;5.38;3.22;;;16.90;85.90;;;;;;4786770;29;20481;-75
2022/07/30 04:56:45;;;;;;;6.05;2.70;;;16.90;86.60;;;;;;4778421;29;20439;-75
2022/07/30 04:59:27;;;;;;;6.32;3.33;;;17.00;86.10;;;;;;4802726;29;20073;-77
2022/07/30 05:01:57;;;;;;;4.18;3.03;;;17.00;86.10;;;;;;4788638;29;20051;-75
2022/07/30 05:04:27;;;;;;;4.78;2.83;;;17.00;86.20;;;;;;4790676;29;20078;-75
2022/07/30 05:06:56;;;;;;;4.72;2.85;;;17.00;86.20;;;;;;4767186;29;20061;-75
2022/07/30 05:09:26;;;;;;;5.53;3.10;;;17.00;86.30;;;;;;4771579;29;20059;-75
2022/07/30 05:11:54;;;;;;;4.72;2.92;;;17.00;86.30;;;;;;4787922;29;20460;-75
2022/07/30 05:14:23;;;;;;;5.90;2.88;;;17.00;86.20;;;;;;4811780;29;20506;-76
2022/07/30 05:16:51;;;;;;;6.43;2.80;;;17.00;86.20;;;;;;4773265;29;20047;-76
2022/07/30 05:19:19;;;;;;;5.78;3.35;;;17.00;86.20;;;;;;4771636;30;20051;-77
2022/07/30 05:21:47;;;;;;;4.10;2.67;;;17.00;86.20;;;;;;4780133;29;20048;-76
2022/07/30 05:24:14;;;;;;;4.90;2.58;;;17.10;86.80;;;;;;4787543;29;20342;-76
2022/07/30 05:26:48;;;;;;;4.40;1.98;;;17.10;86.20;;;;;;4771861;30;20109;-77
2022/07/30 05:29:17;;;;;;;6.03;2.60;;;17.20;86.10;;;;;;4779721;30;20576;-76
2022/07/30 05:31:57;;;;;;;4.15;2.67;;;17.20;86.40;;;;;;4762588;30;20070;-75
2022/07/30 05:34:33;;;;;;;4.68;2.50;;;17.20;86.20;;;;;;4775097;29;20389;-75
2022/07/30 05:37:00;;;;;;;3.90;2.45;;;17.20;86.20;;;;;;4788243;29;20051;-77
2022/07/30 05:39:28;;;;;;;5.60;2.60;;;17.30;86.10;;;;;;4803283;29;20047;-76
2022/07/30 05:41:55;;;;;;;6.18;3.38;;;17.30;86.20;;;;;;4808226;29;20093;-77
2022/07/30 05:44:44;;;;;;;4.43;2.70;;;17.30;86.20;;;;;;4779613;29;20051;-75
2022/07/30 05:47:12;;;;;;;7.43;3.08;;;17.30;86.10;;;;;;4813301;29;20116;-79
2022/07/30 05:49:39;;;;;;;5.43;3.25;;;17.40;86.10;;;;;;4777499;29;20163;-77
2022/07/30 05:52:11;;;;;;;5.18;3.03;;;17.50;86.00;;;;;;4783363;30;20412;-77
2022/07/30 05:54:39;;;;;;;6.22;2.55;;;17.50;85.90;;;;;;4780964;29;20054;-77
2022/07/30 05:57:25;;;;;;;3.80;2.85;;;17.50;85.70;;;;;;4789007;29;20058;-77
2022/07/30 05:59:52;;;;;;;4.97;2.33;;;17.60;85.70;;;;;;4759363;30;20839;-77
2022/07/30 06:02:23;;;;;;;4.63;2.08;;;17.70;85.50;;;;;;4802658;29;20062;-77
2022/07/30 06:05:02;;;;;;;4.22;2.17;;;17.80;85.30;;;;;;4804088;29;20075;-77
2022/07/30 06:07:30;;;;;;;6.15;2.60;;;17.90;85.00;;;;;;4803300;29;20051;-77
2022/07/30 06:10:00;;;;;;;3.80;2.45;;;18.00;84.80;;;;;;4799461;29;20071;-77
2022/07/30 06:12:28;;;;;;;4.68;2.60;;;18.10;84.70;;;;;;4813975;29;20039;-77
2022/07/30 06:14:56;;;;;;;3.90;2.50;;;18.10;84.50;;;;;;4803546;29;20142;-76
2022/07/30 06:17:39;;;;;;;5.85;2.47;;;18.20;84.40;;;;;;4787185;29;20058;-76
2022/07/30 06:20:20;;;;;;;6.75;2.35;;;18.20;84.20;;;;;;4795843;29;20512;-77
2022/07/30 06:23:07;;;;;;;2.92;2.10;;;18.30;84.10;;;;;;4800613;29;20054;-77
2022/07/30 06:25:56;;;;;;;3.33;1.83;;;18.40;84.00;;;;;;4779987;29;20412;-77
2022/07/30 06:28:23;;;;;;;5.32;2.45;;;18.50;83.70;;;;;;4812152;29;20090;-76
2022/07/30 06:31:11;;;;;;;5.30;3.20;;;18.50;83.50;;;;;;4785536;29;20124;-77
2022/07/30 06:33:38;;;;;;;4.88;2.40;;;18.60;83.30;;;;;;4773694;29;20446;-77
2022/07/30 06:36:06;;;;;;;3.33;2.10;;;18.60;83.10;;;;;;4784900;30;20345;-77
2022/07/30 06:38:45;;;;;;;4.07;2.15;;;18.70;83.10;;;;;;4786199;30;20063;-76
2022/07/30 06:41:22;;;;;;;4.63;2.15;;;18.70;82.90;;;;;;4786020;29;20055;-75
2022/07/30 06:43:55;;;;;;;3.53;1.80;;;18.80;82.80;;;;;;4795807;29;20047;-77
2022/07/30 06:46:51;;;;;;;5.05;2.80;;;18.80;82.60;;;;;;4798705;29;20051;-75
2022/07/30 06:49:23;;;;;;;4.83;2.37;;;18.90;82.20;;;;;;4801755;29;20160;-77
2022/07/30 06:51:50;;;;;;;4.78;1.80;;;18.90;82.10;;;;;;4801315;29;20319;-77
2022/07/30 06:54:17;;;;;;;2.25;1.20;;;19.00;82.10;;;;;;4773204;30;20050;-77
2022/07/30 06:57:01;;;;;;;5.82;2.40;;;19.10;81.90;;;;;;4759854;30;20057;-76
2022/07/30 06:59:29;;;;;;;3.90;2.22;;;19.10;81.50;;;;;;4758737;30;20051;-77
2022/07/30 07:01:56;;;;;;;3.38;1.48;;;19.10;81.50;;;;;;4772891;29;20580;-76
2022/07/30 07:04:23;;;;;;;2.70;1.50;;;19.20;81.40;;;;;;4772352;30;20225;-76
2022/07/30 07:06:50;;;;;;;3.92;1.58;;;19.30;81.20;;;;;;4767557;29;20068;-83
2022/07/30 07:09:26;;;;;;;5.60;2.65;;;19.30;80.80;;;;;;4802610;29;20845;-84
2022/07/30 07:12:16;;;;;;;3.20;1.60;;;19.30;80.50;;;;;;4785985;30;20417;-84
2022/07/30 07:14:44;;;;;;;2.72;1.35;;;19.30;80.60;;;;;;4772107;30;20425;-83
2022/07/30 07:17:11;;;;;;;3.70;1.55;;;19.40;80.40;;;;;;4802526;29;20047;-83
2022/07/30 07:19:57;;;;;;;3.03;1.20;;;19.60;80.80;;;;;;4800524;29;20507;-84
2022/07/30 07:22:30;;;;;;;3.55;1.75;;;19.70;79.70;;;;;;4786359;29;20067;-84
2022/07/30 07:24:57;;;;;;;3.83;1.30;;;19.80;79.30;;;;;;4787520;30;20553;-83
2022/07/30 07:27:29;;;;;;;2.45;1.52;;;19.90;78.90;;;;;;4802194;29;20058;-84
2022/07/30 07:29:58;;;;;;;2.15;1.05;;;19.90;78.60;;;;;;4786801;30;20381;-84
2022/07/30 07:32:34;;;;;;;2.45;1.17;;;20.00;78.60;;;;;;4784146;30;20058;-85
2022/07/30 07:35:02;;;;;;;3.45;1.48;;;20.00;78.40;;;;;;4787284;30;20047;-85
2022/07/30 07:37:31;;;;;;;2.95;1.17;;;19.90;78.00;;;;;;4796377;29;20137;-85
2022/07/30 07:39:58;;;;;;;3.85;1.50;;;19.90;78.70;;;;;;4772445;30;20587;-85
2022/07/30 07:42:28;;;;;;;3.42;1.30;;;20.00;77.70;;;;;;4801974;29;20389;-85
2022/07/30 07:44:55;;;;;;;2.85;1.13;;;20.10;77.40;;;;;;4771111;30;20109;-86
2022/07/30 07:47:22;;;;;;;3.92;1.15;;;20.20;77.00;;;;;;4780104;29;20483;-86
2022/07/30 07:50:08;;;;;;;3.20;1.30;;;20.30;76.60;;;;;;4787372;30;20043;-86
2022/07/30 07:52:34;;;;;;;4.20;1.27;;;20.40;76.20;;;;;;4787421;30;20096;-86
2022/07/30 07:55:02;;;;;;;3.70;1.30;;;20.50;76.00;;;;;;4768585;30;20550;-85
2022/07/30 07:57:39;;;;;;;2.58;1.15;;;20.60;75.60;;;;;;4772544;30;20082;-86
2022/07/30 08:00:10;;;;;;;1.70;1.02;;;20.70;75.00;;;;;;4786319;29;20477;-86
2022/07/30 08:02:45;;;;;;;5.05;1.67;;;20.60;74.80;;;;;;4773769;29;20043;-85
2022/07/30 08:05:14;;;;;;;2.05;0.80;;;20.70;74.70;;;;;;4780577;29;20472;-84
2022/07/30 08:07:52;;;;;;;3.25;0.93;;;20.80;74.70;;;;;;4778215;29;20086;-84
2022/07/30 08:10:19;;;;;;;2.58;1.13;;;21.00;74.20;;;;;;4777418;30;20056;-84
2022/07/30 08:13:07;;;;;;;2.25;1.05;;;21.10;73.30;;;;;;4765708;30;20508;-84
2022/07/30 08:16:17;;;;;;;3.08;1.30;;;21.10;72.90;;;;;;4781417;29;20043;-84
2022/07/30 08:19:13;;;;;;;4.03;1.05;;;21.10;71.80;;;;;;4790061;29;20155;-84
2022/07/30 08:21:47;;;;;;;2.67;0.90;;;21.10;71.80;;;;;;4778427;29;20052;-84
2022/07/30 08:24:16;;;;;;;2.05;0.80;;;21.20;71.80;;;;;;4773594;29;20051;-84
2022/07/30 08:26:43;;;;;;;2.58;0.93;;;21.40;71.70;;;;;;4790613;29;20051;-83
2022/07/30 08:29:10;;;;;;;2.55;1.02;;;21.40;71.00;;;;;;4786036;29;20051;-83
2022/07/30 08:31:44;;;;;;;2.05;0.80;;;21.40;70.20;;;;;;4767478;30;20406;-83
2022/07/30 08:34:12;;;;;;;1.80;0.73;;;21.50;70.10;;;;;;4762748;30;20053;-83
2022/07/30 08:36:40;;;;;;;1.35;0.70;;;21.70;69.80;;;;;;4746748;30;20077;-83
2022/07/30 08:39:07;;;;;;;0.80;0.50;;;21.70;69.40;;;;;;4747040;30;20057;-82
2022/07/30 08:41:37;;;;;;;1.15;0.65;;;21.90;69.00;;;;;;4728929;30;20060;-83
2022/07/30 08:44:09;;;;;;;3.60;1.25;;;21.90;68.70;;;;;;4747259;30;20056;-83
2022/07/30 08:46:42;;;;;;;1.77;0.93;;;22.00;67.80;;;;;;4761021;30;20053;-82
2022/07/30 08:49:52;;;;;;;5.35;1.00;;;22.00;67.60;;;;;;4732403;30;20105;-82
2022/07/30 08:52:24;;;;;;;1.92;0.70;;;22.00;67.50;;;;;;4726433;30;20056;-83
2022/07/30 08:54:59;;;;;;;1.50;0.70;;;22.00;67.60;;;;;;4746245;30;20053;-83
2022/07/30 08:57:30;;;;;;;1.58;0.70;;;22.10;67.00;;;;;;4751046;30;20052;-84
2022/07/30 08:59:58;;;;;;;2.83;0.63;;;22.10;66.40;;;;;;4750681;30;20095;-84
2022/07/30 09:02:30;;;;;;;0.90;0.38;;;22.20;65.90;;;;;;4791741;29;20074;-84
2022/07/30 09:05:03;;;;;;;2.60;0.80;;;22.30;65.00;;;;;;4795895;29;20062;-83
2022/07/30 09:07:32;;;;;;;1.77;0.70;;;22.30;64.40;;;;;;4774090;30;20447;-83
2022/07/30 09:10:02;;;;;;;1.83;0.95;;;22.30;64.50;;;;;;4774871;30;20047;-82
2022/07/30 09:12:44;;;;;;;4.25;1.25;;;22.30;64.00;;;;;;4782940;30;20055;-84
2022/07/30 09:15:18;;;;;;;1.37;0.60;;;22.40;64.10;;;;;;4776071;30;20051;-85
2022/07/30 09:17:45;;;;;;;1.90;0.60;;;22.60;64.30;;;;;;4800317;29;20307;-86
2022/07/30 09:20:15;;;;;;;2.72;0.63;;;22.70;64.20;;;;;;4795924;29;20139;-85
2022/07/30 09:22:50;;;;;;;2.55;0.60;;;22.90;64.00;;;;;;4789540;29;20051;-84
2022/07/30 09:25:41;;;;;;;4.40;0.70;;;23.00;63.60;;;;;;4777493;29;20416;-86
2022/07/30 09:28:31;;;;;;;1.02;0.50;;;23.10;62.50;;;;;;4779327;29;20881;-82
2022/07/30 09:31:14;;;;;;;2.63;0.77;;;23.10;62.50;;;;;;4779206;29;20400;-83
2022/07/30 09:33:59;;;;;;;1.10;0.52;;;23.20;62.00;;;;;;4777586;30;20051;-83
2022/07/30 09:37:07;;;;;;;1.73;0.73;;;23.20;61.70;;;;;;4771515;30;20048;-87
2022/07/30 09:39:54;;;;;;;2.67;0.93;;;23.30;61.30;;;;;;4771447;30;20058;-88
2022/07/30 09:42:45;;;;;;;2.38;0.68;;;23.30;61.10;;;;;;4772729;30;20090;-87
2022/07/30 09:45:15;;;;;;;1.90;0.55;;;23.40;60.90;;;;;;4788408;29;20055;-81
2022/07/30 09:47:48;;;;;;;1.75;0.70;;;23.50;61.50;;;;;;4760013;29;20055;-85
2022/07/30 09:50:19;;;;;;;3.05;0.75;;;23.50;59.70;;;;;;4789372;30;20116;-91
2022/07/30 09:53:07;;;;;;;2.10;0.60;;;23.60;59.20;;;;;;4787108;30;20505;-85
2022/07/30 09:55:36;;;;;;;1.90;0.57;;;23.70;59.30;;;;;;4784594;30;20044;-82
2022/07/30 09:58:09;;;;;;;1.38;0.47;;;23.80;59.30;;;;;;4774634;30;20467;-83
2022/07/30 10:00:40;;;;;;;2.17;0.80;;;23.90;59.40;;;;;;4776269;30;20061;-82
2022/07/30 10:03:31;;;;;;;;;;;23.90;58.40;;;;;;4784093;30;20564;-83
2022/07/30 10:06:35;;;;;;;2.25;0.60;;;23.90;58.70;;;;;;4786228;29;20371;-81
2022/07/30 10:09:30;;;;;;;1.08;0.60;;;24.00;59.40;;;;;;4802657;29;20051;-80
2022/07/30 10:12:03;;;;;;;1.55;0.55;;;24.00;58.30;;;;;;4773705;29;20138;-86
2022/07/30 10:14:34;;;;;;;2.67;0.50;;;24.10;58.10;;;;;;4774029;30;20458;-87
2022/07/30 10:17:09;;;;;;;0.80;0.47;;;24.20;58.30;;;;;;4794425;29;20055;-86
2022/07/30 10:19:39;;;;;;;1.33;0.57;;;24.30;57.90;;;;;;4768391;30;20482;-85
2022/07/30 10:22:46;;;;;;;2.78;0.50;;;24.40;57.70;;;;;;4793970;29;20056;-85
2022/07/30 10:25:26;;;;;;;1.83;0.55;;;24.50;57.30;;;;;;4783045;29;20061;-85
2022/07/30 10:28:14;;;;;;;2.25;0.60;;;24.50;55.30;;;;;;4801833;29;20066;-86
2022/07/30 10:30:44;;;;;;;1.38;0.60;;;24.40;55.20;;;;;;4800443;29;20055;-86
2022/07/30 10:33:11;;;;;;;1.45;0.50;;;24.40;54.70;;;;;;4785484;30;20052;-84
2022/07/30 10:35:58;;;;;;;3.45;0.60;;;24.40;54.60;;;;;;4802054;29;20047;-85
2022/07/30 10:38:33;;;;;;;1.65;0.50;;;24.40;54.70;;;;;;4788901;30;20051;-85
2022/07/30 10:41:21;;;;;;;2.85;0.50;;;24.60;54.80;;;;;;4805227;29;20496;-84
2022/07/30 10:44:24;;;;;;;1.10;0.50;;;24.60;54.00;;;;;;4769972;30;20070;-82
2022/07/30 10:46:56;;;;;;;1.20;0.50;;;24.80;53.70;;;;;;4810469;29;20051;-82
2022/07/30 10:49:24;;;;;;;1.42;0.50;;;24.80;53.60;;;;;;4787584;29;20055;-84
2022/07/30 10:51:55;;;;;;;0.85;0.32;;;24.80;53.70;;;;;;4768370;30;20074;-86
2022/07/30 10:54:32;;;;;;;1.80;0.60;;;24.90;53.90;;;;;;4788951;30;20062;-87
2022/07/30 10:57:06;;;;;;;2.15;0.30;;;25.10;54.00;;;;;;4777435;29;20051;-85
2022/07/30 11:00:08;;;;;;;1.20;0.50;;;25.30;53.80;;;;;;4787770;30;20078;-85
2022/07/30 11:02:35;;;;;;;1.25;0.40;;;25.40;52.50;;;;;;4784917;30;20050;-86
2022/07/30 11:05:22;;;;;;;0.98;0.35;;;25.40;52.80;;;;;;4787896;29;20439;-88
2022/07/30 11:08:28;;;;;;;0.70;0.30;;;25.60;52.60;;;;;;4793155;29;20047;-83
2022/07/30 11:10:58;;;;;;;1.77;0.57;;;25.70;51.80;;;;;;4796935;29;20048;-86
2022/07/30 11:13:56;;;;;;;0.60;0.30;;;25.80;50.80;;;;;;4792958;29;20061;-85
2022/07/30 11:16:47;;;;;;;1.23;0.50;;;25.70;50.00;;;;;;4787015;29;20052;-86
2022/07/30 11:19:23;;;;;;;1.02;0.40;;;25.80;50.40;;;;;;4783647;29;20043;-84
2022/07/30 11:22:35;;;;;;;0.80;0.35;;;26.10;50.70;;;;;;4784123;29;20055;-84
2022/07/30 11:25:02;;;;;;;;;;;26.20;49.50;;;;;;4772930;30;20067;-85
2022/07/30 11:27:45;;;;;;;1.55;0.50;;;26.10;50.20;;;;;;4774500;29;19932;-85
2022/07/30 11:30:15;;;;;;;0.90;0.47;;;26.20;49.80;;;;;;4773060;30;20047;-85
2022/07/30 11:32:45;;;;;;;0.90;0.30;;;26.40;50.10;;;;;;4770393;30;20093;-82
2022/07/30 11:35:24;;;;;;;0.80;0.40;;;26.50;49.90;;;;;;4784477;29;20515;-82
2022/07/30 11:38:00;;;;;;;2.72;0.60;;;26.50;49.30;;;;;;4797190;29;20043;-84
2022/07/30 11:40:33;;;;;;;1.25;0.47;;;26.40;48.90;;;;;;4797026;29;20053;-84
2022/07/30 11:43:31;;;;;;;0.88;0.30;;;26.40;49.20;;;;;;4800929;29;20058;-87
2022/07/30 11:46:06;;;;;;;1.52;0.50;;;26.70;49.20;;;;;;4783003;29;20138;-80
2022/07/30 11:48:38;;;;;;;1.17;0.40;;;26.80;49.10;;;;;;4788071;29;20112;-79
2022/07/30 11:51:05;;;;;;;2.10;0.73;;;26.70;49.20;;;;;;4789008;29;20054;-79
2022/07/30 11:53:33;;;;;;;1.80;0.50;;;26.80;49.30;;;;;;4772141;30;20073;-80
2022/07/30 11:56:02;;;;;;;1.83;0.60;;;26.80;48.90;;;;;;4784488;30;20105;-80
2022/07/30 11:58:37;;;;;;;1.48;0.60;;;26.90;48.80;;;;;;4780548;29;20083;-76
2022/07/30 12:01:15;;;;;;;1.70;0.43;;;26.80;48.80;;;;;;4780727;29;20097;-76
2022/07/30 12:03:44;;;;;;;1.45;0.50;;;26.90;48.90;;;;;;4768416;29;20043;-77
2022/07/30 12:06:18;;;;;;;0.70;0.40;;;27.00;48.70;;;;;;4759833;29;20542;-78
2022/07/30 12:08:48;;;;;;;1.15;0.50;;;27.20;48.70;;;;;;4751637;29;20050;-81
2022/07/30 12:11:15;;;;;;;1.88;0.50;;;27.50;48.70;;;;;;4775709;29;20058;-83
2022/07/30 12:13:53;;;;;;;1.50;0.50;;;27.80;48.40;;;;;;4770360;29;20048;-83
2022/07/30 12:16:20;;;;;;;2.20;0.60;;;27.60;48.40;;;;;;4784301;29;20039;-80
2022/07/30 12:18:47;;;;;;;3.60;0.43;;;28.00;48.40;;;;;;4777319;29;20050;-80
2022/07/30 12:21:15;;;;;;;1.13;0.50;;;28.60;47.80;;;;;;4801138;29;20055;-80
2022/07/30 12:24:04;;;;;;;0.60;0.40;;;29.10;48.10;;;;;;4772766;30;20522;-82
2022/07/30 12:26:32;;;;;;;1.17;0.52;;;29.60;47.10;;;;;;4782062;29;20154;-77
2022/07/30 12:29:05;;;;;;;1.50;0.40;;;29.80;47.00;;;;;;4788408;29;20053;-78
2022/07/30 12:31:33;;;;;;;0.95;0.30;;;29.80;47.20;;;;;;4792893;29;20404;-77
2022/07/30 12:34:04;;;;;;;0.82;0.32;;;30.00;47.20;;;;;;4788354;29;20039;-76
2022/07/30 12:36:34;;;;;;;1.17;0.38;;;30.40;46.90;;;;;;4785324;29;20443;-76
2022/07/30 12:39:03;;;;;;;0.93;0.47;;;30.90;46.40;;;;;;4789778;29;20082;-76
2022/07/30 12:41:42;;;;;;;1.08;0.40;;;31.00;45.50;;;;;;4770494;30;20047;-80
2022/07/30 12:44:10;;;;;;;2.08;0.60;;;31.30;45.50;;;;;;4773643;29;20123;-76
2022/07/30 12:46:42;;;;;;;0.75;0.50;;;31.40;45.40;;;;;;4785224;29;20051;-77
2022/07/30 12:49:09;;;;;;;0.65;0.32;;;31.40;45.30;;;;;;4791586;29;20113;-76
2022/07/30 12:51:52;;;;;;;1.75;0.60;;;31.00;45.40;;;;;;4778284;29;20067;-82
2022/07/30 12:54:27;;;;;;;3.83;0.60;;;30.60;45.10;;;;;;4793062;29;20085;-78
2022/07/30 12:56:57;;;;;;;0.95;0.43;;;30.20;44.80;;;;;;4785538;29;20046;-77
2022/07/30 12:59:24;;;;;;;1.13;0.50;;;30.50;45.20;;;;;;4783469;29;20054;-77
2022/07/30 13:01:52;;;;;;;0.90;0.60;;;31.00;45.10;;;;;;4785850;29;20560;-77
2022/07/30 13:04:19;;;;;;;1.08;0.60;;;31.20;44.00;;;;;;4767927;30;20063;-79
2022/07/30 13:07:03;;;;;;;1.15;0.40;;;31.30;43.80;;;;;;4770511;30;20109;-80
2022/07/30 13:09:31;;;;;;;1.10;0.40;;;31.20;42.70;;;;;;4790171;29;20454;-76
2022/07/30 13:11:58;;;;;;;1.10;0.40;;;30.90;43.40;;;;;;4773969;29;20071;-75
2022/07/30 13:14:26;;;;;;;1.45;0.50;;;30.50;43.90;;;;;;4792134;29;20120;-76
2022/07/30 13:16:57;;;;;;;1.60;0.50;;;30.10;44.20;;;;;;4789056;29;20047;-77
2022/07/30 13:19:25;;;;;;;0.95;0.47;;;30.50;43.90;;;;;;4781454;29;20051;-77
2022/07/30 13:21:52;;;;;;;1.17;0.60;;;30.80;43.60;;;;;;4791977;29;20112;-76